Sunflower Gold — JD2460 — position and weather

sailwx.info

Track history (hours):
 
Tides and Currents Weather Stations Pressure Air Temp Water Temp Dewpoint Dewpoint Depression Visibility Wind Speed Wind Dir Waves Ship Positions

Sunflower Gold

Last reported at 2017-Oct-21 12:12 UTC. Time now 2017-Oct-22 17:37 UTC.
Position N 34°35' E 134°52'.

Length 166 m; draft 5.8 m.

Type: Passenger vessel. MMSI: 431000331.

Date/timePositionNaut miles runAvg speedWind from/ knotsBaromVisibWave heightAir tempDewpointWater temp
2017-Oct-21 12:12N 34°35' E 134°52'422.3
2017-Oct-21 12:00N 34°37' E 134°57'1021.0
2017-Oct-21 11:30N 34°36' E 135°09'917.2
2017-Oct-21 11:00N 34°41' E 135°18'1 1.9
2017-Oct-21 10:26N 34°42' E 135°17'0 0.0
2017-Oct-21 09:56N 34°42' E 135°17'0 0.0
2017-Oct-21 09:26N 34°42' E 135°17'0 0.0
2017-Oct-21 08:56N 34°42' E 135°17'0 0.0
2017-Oct-21 08:26N 34°42' E 135°17'0 0.0
2017-Oct-21 07:56N 34°42' E 135°17'0 0.0
2017-Oct-21 07:26N 34°42' E 135°17'0 0.0
2017-Oct-21 06:56N 34°42' E 135°17'0 0.0
2017-Oct-21 06:26N 34°42' E 135°17'0 0.0
2017-Oct-21 05:56N 34°42' E 135°17'0 0.0
2017-Oct-21 05:26N 34°42' E 135°17'0 0.0
2017-Oct-21 04:56N 34°42' E 135°17'0 0.0
2017-Oct-21 04:26N 34°42' E 135°17'0 0.0
2017-Oct-21 03:56N 34°42' E 135°17'0 0.0
2017-Oct-21 03:26N 34°42' E 135°17'0 0.0
2017-Oct-21 02:44N 34°42' E 135°17'0 0.0
2017-Oct-21 02:26N 34°42' E 135°17'0 0.0
2017-Oct-21 01:56N 34°42' E 135°17'0 0.0
2017-Oct-21 01:26N 34°42' E 135°17'0 0.0
2017-Oct-21 00:56N 34°42' E 135°17'0 0.0
2017-Oct-21 00:26N 34°42' E 135°17'0 0.0
2017-Oct-20 23:56N 34°42' E 135°17'0 0.0
2017-Oct-20 23:26N 34°42' E 135°17'0 0.0
2017-Oct-20 22:57N 34°42' E 135°17'2 4.9
2017-Oct-20 22:30N 34°40' E 135°18'815.2
2017-Oct-20 22:00N 34°35' E 135°12'917.2
2017-Oct-20 21:30N 34°37' E 135°02'1017.0
2017-Oct-20 20:56N 34°33' E 134°51'1 0.0
2017-Oct-19 11:26N 34°34' E 134°50'922.0
2017-Oct-19 11:00N 34°37' E 135°01'1020.3
2017-Oct-19 10:31N 34°37' E 135°13'612.1
2017-Oct-19 10:00N 34°42' E 135°17'0 0.0
2017-Oct-19 09:22N 34°42' E 135°17'0 0.0
2017-Oct-19 08:58N 34°42' E 135°17'0 0.0
2017-Oct-19 08:22N 34°42' E 135°17'0 0.0
2017-Oct-19 07:52N 34°42' E 135°17'0 0.0
2017-Oct-19 07:28N 34°42' E 135°17'0 0.0
2017-Oct-19 06:52N 34°42' E 135°17'0 0.0
2017-Oct-19 06:28N 34°42' E 135°17'0 0.0
2017-Oct-19 05:58N 34°42' E 135°17'0 0.0
2017-Oct-19 05:28N 34°42' E 135°17'0 0.0
2017-Oct-19 04:58N 34°42' E 135°17'0 0.0
2017-Oct-19 04:28N 34°42' E 135°17'0 0.0
2017-Oct-19 03:58N 34°42' E 135°17'0 0.0
2017-Oct-19 03:28N 34°42' E 135°17'0 0.0
2017-Oct-19 02:58N 34°42' E 135°17'0 0.0
2017-Oct-19 02:28N 34°42' E 135°17'0 0.0
2017-Oct-19 01:58N 34°42' E 135°17'0 0.0
2017-Oct-19 01:28N 34°42' E 135°17'0 0.0
2017-Oct-19 00:46N 34°42' E 135°17'0 0.0
2017-Oct-19 00:28N 34°42' E 135°17'0 0.0
2017-Oct-18 23:46N 34°42' E 135°17'0 0.0
2017-Oct-18 23:22N 34°42' E 135°17'0 0.0
2017-Oct-18 22:52N 34°42' E 135°17'0 0.0
2017-Oct-18 22:28N 34°42' E 135°17'0 0.0
2017-Oct-18 21:58N 34°42' E 135°17'0 0.1
2017-Oct-18 21:30N 34°42' E 135°17'510.8
2017-Oct-18 21:00N 34°37' E 135°17'1020.1
2017-Oct-18 20:30N 34°35' E 135°05'917.8
2017-Oct-18 20:00N 34°35' E 134°54'5 0.1
2017-Oct-17 11:30N 34°34' E 134°48'1121.4
2017-Oct-17 10:59N 34°37' E 135°01'1019.8
2017-Oct-17 10:30N 34°37' E 135°13'612.0
2017-Oct-17 09:59N 34°42' E 135°17'0 0.0
2017-Oct-17 09:18N 34°42' E 135°17'0 0.0
2017-Oct-17 09:00N 34°42' E 135°17'0 0.0
2017-Oct-17 08:30N 34°42' E 135°17'0 0.0
2017-Oct-17 08:00N 34°42' E 135°17'0 0.0
2017-Oct-17 07:30N 34°42' E 135°17'0 0.0
2017-Oct-17 07:00N 34°42' E 135°17'0 0.0
2017-Oct-17 06:06N 34°42' E 135°17'0 0.0
2017-Oct-17 06:00N 34°42' E 135°17'0 0.0
2017-Oct-17 05:30N 34°42' E 135°17'0 0.0
2017-Oct-17 04:48N 34°42' E 135°17'0 0.0
2017-Oct-17 04:18N 34°42' E 135°17'0 0.0
2017-Oct-17 04:00N 34°42' E 135°17'0 0.0
2017-Oct-17 03:06N 34°42' E 135°17'0 0.0
2017-Oct-17 02:42N 34°42' E 135°17'0 0.0
2017-Oct-17 02:24N 34°42' E 135°17'0 0.0
2017-Oct-17 01:42N 34°42' E 135°17'0 0.0
2017-Oct-17 01:12N 34°42' E 135°17'0 0.0
2017-Oct-17 01:00N 34°42' E 135°17'0 0.0
2017-Oct-17 00:30N 34°42' E 135°17'0 0.0
2017-Oct-17 00:00N 34°42' E 135°17'0 0.0
2017-Oct-16 23:24N 34°42' E 135°17'0 0.0
2017-Oct-16 22:54N 34°42' E 135°17'0 0.0
2017-Oct-16 22:24N 34°42' E 135°17'0 0.0
2017-Oct-16 22:00N 34°42' E 135°17'0 0.0
2017-Oct-16 21:30N 34°42' E 135°17'510.3
2017-Oct-16 21:00N 34°37' E 135°17'1019.2
2017-Oct-16 20:30N 34°35' E 135°05'917.4
2017-Oct-16 20:00N 34°35' E 134°55'4 0.1
2017-Oct-15 11:26N 34°34' E 134°50'920.6
2017-Oct-15 11:00N 34°38' E 135°00'1020.0
2017-Oct-15 10:30N 34°37' E 135°12'612.6
2017-Oct-15 10:00N 34°42' E 135°17'0 0.0
2017-Oct-15 09:20N 34°42' E 135°17'0 0.0
2017-Oct-15 08:56N 34°42' E 135°17'0 0.0
2017-Oct-15 08:26N 34°42' E 135°17'0 0.0
2017-Oct-15 07:56N 34°42' E 135°17'0 0.0
2017-Oct-15 07:20N 34°42' E 135°17'0 0.0
2017-Oct-15 06:56N 34°42' E 135°17'0 0.0
2017-Oct-15 06:26N 34°42' E 135°17'0 0.0
2017-Oct-15 05:56N 34°42' E 135°17'0 0.0
2017-Oct-15 05:26N 34°42' E 135°17'0 0.0
2017-Oct-15 04:56N 34°42' E 135°17'0 0.0
2017-Oct-15 04:20N 34°42' E 135°17'0 0.0
2017-Oct-15 03:56N 34°42' E 135°17'0 0.0
2017-Oct-15 03:26N 34°42' E 135°17'0 0.0
2017-Oct-15 02:56N 34°42' E 135°17'0 0.0
2017-Oct-15 02:26N 34°42' E 135°17'0 0.0
2017-Oct-15 01:56N 34°42' E 135°17'0 0.0
2017-Oct-15 01:20N 34°42' E 135°17'0 0.0
2017-Oct-15 00:56N 34°42' E 135°17'0 0.0
2017-Oct-15 00:26N 34°42' E 135°17'0 0.0
2017-Oct-14 23:56N 34°42' E 135°17'0 0.0
2017-Oct-14 23:26N 34°42' E 135°17'0 0.0
2017-Oct-14 22:55N 34°42' E 135°17'2 4.4
2017-Oct-14 22:30N 34°40' E 135°18'815.2
2017-Oct-14 22:00N 34°35' E 135°12'918.0
2017-Oct-14 21:30N 34°37' E 135°01'1018.2
2017-Oct-14 20:59N 34°33' E 134°50'4 0.1
2017-Oct-13 12:12N 34°36' E 134°53'418.6
2017-Oct-13 12:01N 34°37' E 134°57'1019.1
2017-Oct-13 11:30N 34°36' E 135°09'917.6
2017-Oct-13 11:00N 34°41' E 135°18'2 3.2
2017-Oct-13 10:30N 34°42' E 135°17'0 0.0
2017-Oct-13 09:55N 34°42' E 135°17'0 0.0
2017-Oct-13 09:25N 34°42' E 135°17'0 0.0
2017-Oct-13 08:43N 34°42' E 135°17'0 0.0
2017-Oct-13 08:13N 34°42' E 135°17'0 0.0
2017-Oct-13 07:55N 34°42' E 135°17'0 0.0
2017-Oct-13 07:13N 34°42' E 135°17'0 0.0
2017-Oct-13 06:55N 34°42' E 135°17'0 0.0
2017-Oct-13 06:25N 34°42' E 135°17'0 0.0
2017-Oct-13 05:55N 34°42' E 135°17'0 0.0
2017-Oct-13 05:25N 34°42' E 135°17'0 0.0
2017-Oct-13 04:55N 34°42' E 135°17'0 0.0
2017-Oct-13 04:25N 34°42' E 135°17'0 0.0
2017-Oct-13 03:49N 34°42' E 135°17'0 0.0
2017-Oct-13 03:25N 34°42' E 135°17'0 0.0
2017-Oct-13 02:55N 34°42' E 135°17'0 0.0
2017-Oct-13 02:25N 34°42' E 135°17'0 0.0
2017-Oct-13 01:43N 34°42' E 135°17'0 0.0
2017-Oct-13 01:25N 34°42' E 135°17'0 0.0
2017-Oct-13 00:55N 34°42' E 135°17'0 0.0
2017-Oct-13 00:07N 34°42' E 135°17'0 0.0
2017-Oct-12 23:55N 34°42' E 135°17'0 0.0
2017-Oct-12 23:25N 34°42' E 135°17'0 0.0
2017-Oct-12 22:49N 34°42' E 135°17'0 0.0
2017-Oct-12 22:25N 34°42' E 135°17'0 0.0
2017-Oct-12 21:43N 34°42' E 135°17'0 0.2
2017-Oct-12 21:31N 34°42' E 135°17'510.2
2017-Oct-12 21:01N 34°37' E 135°17'917.5
2017-Oct-12 20:30N 34°34' E 135°07'1019.7
2017-Oct-12 19:58N 34°35' E 134°54'  
Track history (hours):
 
Tides and Currents Weather Stations Pressure Air Temp Water Temp Dewpoint Dewpoint Depression Visibility Wind Speed Wind Dir Waves Ship Positions

Sunflower Gold

Last reported at 2017-Oct-21 12:12 UTC. Time now 2017-Oct-22 17:37 UTC.
Position N 34°35' E 134°52'.

Length 166 m; draft 5.8 m.

Type: Passenger vessel. MMSI: 431000331.

Date/timePositionNaut miles runAvg speedWind from/ knotsBaromVisibWave heightAir tempDewpointWater temp
2017-Oct-21 12:12N 34°35' E 134°52'422.3
2017-Oct-21 12:00N 34°37' E 134°57'1021.0
2017-Oct-21 11:30N 34°36' E 135°09'917.2
2017-Oct-21 11:00N 34°41' E 135°18'1 1.9
2017-Oct-21 10:26N 34°42' E 135°17'0 0.0
2017-Oct-21 09:56N 34°42' E 135°17'0 0.0
2017-Oct-21 09:26N 34°42' E 135°17'0 0.0
2017-Oct-21 08:56N 34°42' E 135°17'0 0.0
2017-Oct-21 08:26N 34°42' E 135°17'0 0.0
2017-Oct-21 07:56N 34°42' E 135°17'0 0.0
2017-Oct-21 07:26N 34°42' E 135°17'0 0.0
2017-Oct-21 06:56N 34°42' E 135°17'0 0.0
2017-Oct-21 06:26N 34°42' E 135°17'0 0.0
2017-Oct-21 05:56N 34°42' E 135°17'0 0.0
2017-Oct-21 05:26N 34°42' E 135°17'0 0.0
2017-Oct-21 04:56N 34°42' E 135°17'0 0.0
2017-Oct-21 04:26N 34°42' E 135°17'0 0.0
2017-Oct-21 03:56N 34°42' E 135°17'0 0.0
2017-Oct-21 03:26N 34°42' E 135°17'0 0.0
2017-Oct-21 02:44N 34°42' E 135°17'0 0.0
2017-Oct-21 02:26N 34°42' E 135°17'0 0.0
2017-Oct-21 01:56N 34°42' E 135°17'0 0.0
2017-Oct-21 01:26N 34°42' E 135°17'0 0.0
2017-Oct-21 00:56N 34°42' E 135°17'0 0.0
2017-Oct-21 00:26N 34°42' E 135°17'0 0.0
2017-Oct-20 23:56N 34°42' E 135°17'0 0.0
2017-Oct-20 23:26N 34°42' E 135°17'0 0.0
2017-Oct-20 22:57N 34°42' E 135°17'2 4.9
2017-Oct-20 22:30N 34°40' E 135°18'815.2
2017-Oct-20 22:00N 34°35' E 135°12'917.2
2017-Oct-20 21:30N 34°37' E 135°02'1017.0
2017-Oct-20 20:56N 34°33' E 134°51'1 0.0
2017-Oct-19 11:26N 34°34' E 134°50'922.0
2017-Oct-19 11:00N 34°37' E 135°01'1020.3
2017-Oct-19 10:31N 34°37' E 135°13'612.1
2017-Oct-19 10:00N 34°42' E 135°17'0 0.0
2017-Oct-19 09:22N 34°42' E 135°17'0 0.0
2017-Oct-19 08:58N 34°42' E 135°17'0 0.0
2017-Oct-19 08:22N 34°42' E 135°17'0 0.0
2017-Oct-19 07:52N 34°42' E 135°17'0 0.0
2017-Oct-19 07:28N 34°42' E 135°17'0 0.0
2017-Oct-19 06:52N 34°42' E 135°17'0 0.0
2017-Oct-19 06:28N 34°42' E 135°17'0 0.0
2017-Oct-19 05:58N 34°42' E 135°17'0 0.0
2017-Oct-19 05:28N 34°42' E 135°17'0 0.0
2017-Oct-19 04:58N 34°42' E 135°17'0 0.0
2017-Oct-19 04:28N 34°42' E 135°17'0 0.0
2017-Oct-19 03:58N 34°42' E 135°17'0 0.0
2017-Oct-19 03:28N 34°42' E 135°17'0 0.0
2017-Oct-19 02:58N 34°42' E 135°17'0 0.0
2017-Oct-19 02:28N 34°42' E 135°17'0 0.0
2017-Oct-19 01:58N 34°42' E 135°17'0 0.0
2017-Oct-19 01:28N 34°42' E 135°17'0 0.0
2017-Oct-19 00:46N 34°42' E 135°17'0 0.0
2017-Oct-19 00:28N 34°42' E 135°17'0 0.0
2017-Oct-18 23:46N 34°42' E 135°17'0 0.0
2017-Oct-18 23:22N 34°42' E 135°17'0 0.0
2017-Oct-18 22:52N 34°42' E 135°17'0 0.0
2017-Oct-18 22:28N 34°42' E 135°17'0 0.0
2017-Oct-18 21:58N 34°42' E 135°17'0 0.1
2017-Oct-18 21:30N 34°42' E 135°17'510.8
2017-Oct-18 21:00N 34°37' E 135°17'1020.1
2017-Oct-18 20:30N 34°35' E 135°05'917.8
2017-Oct-18 20:00N 34°35' E 134°54'5 0.1
2017-Oct-17 11:30N 34°34' E 134°48'1121.4
2017-Oct-17 10:59N 34°37' E 135°01'1019.8
2017-Oct-17 10:30N 34°37' E 135°13'612.0
2017-Oct-17 09:59N 34°42' E 135°17'0 0.0
2017-Oct-17 09:18N 34°42' E 135°17'0 0.0
2017-Oct-17 09:00N 34°42' E 135°17'0 0.0
2017-Oct-17 08:30N 34°42' E 135°17'0 0.0
2017-Oct-17 08:00N 34°42' E 135°17'0 0.0
2017-Oct-17 07:30N 34°42' E 135°17'0 0.0
2017-Oct-17 07:00N 34°42' E 135°17'0 0.0
2017-Oct-17 06:06N 34°42' E 135°17'0 0.0
2017-Oct-17 06:00N 34°42' E 135°17'0 0.0
2017-Oct-17 05:30N 34°42' E 135°17'0 0.0
2017-Oct-17 04:48N 34°42' E 135°17'0 0.0
2017-Oct-17 04:18N 34°42' E 135°17'0 0.0
2017-Oct-17 04:00N 34°42' E 135°17'0 0.0
2017-Oct-17 03:06N 34°42' E 135°17'0 0.0
2017-Oct-17 02:42N 34°42' E 135°17'0 0.0
2017-Oct-17 02:24N 34°42' E 135°17'0 0.0
2017-Oct-17 01:42N 34°42' E 135°17'0 0.0
2017-Oct-17 01:12N 34°42' E 135°17'0 0.0
2017-Oct-17 01:00N 34°42' E 135°17'0 0.0
2017-Oct-17 00:30N 34°42' E 135°17'0 0.0
2017-Oct-17 00:00N 34°42' E 135°17'0 0.0
2017-Oct-16 23:24N 34°42' E 135°17'0 0.0
2017-Oct-16 22:54N 34°42' E 135°17'0 0.0
2017-Oct-16 22:24N 34°42' E 135°17'0 0.0
2017-Oct-16 22:00N 34°42' E 135°17'0 0.0
2017-Oct-16 21:30N 34°42' E 135°17'510.3
2017-Oct-16 21:00N 34°37' E 135°17'1019.2
2017-Oct-16 20:30N 34°35' E 135°05'917.4
2017-Oct-16 20:00N 34°35' E 134°55'4 0.1
2017-Oct-15 11:26N 34°34' E 134°50'920.6
2017-Oct-15 11:00N 34°38' E 135°00'1020.0
2017-Oct-15 10:30N 34°37' E 135°12'612.6
2017-Oct-15 10:00N 34°42' E 135°17'0 0.0
2017-Oct-15 09:20N 34°42' E 135°17'0 0.0
2017-Oct-15 08:56N 34°42' E 135°17'0 0.0
2017-Oct-15 08:26N 34°42' E 135°17'0 0.0
2017-Oct-15 07:56N 34°42' E 135°17'0 0.0
2017-Oct-15 07:20N 34°42' E 135°17'0 0.0
2017-Oct-15 06:56N 34°42' E 135°17'0 0.0
2017-Oct-15 06:26N 34°42' E 135°17'0 0.0
2017-Oct-15 05:56N 34°42' E 135°17'0 0.0
2017-Oct-15 05:26N 34°42' E 135°17'0 0.0
2017-Oct-15 04:56N 34°42' E 135°17'0 0.0
2017-Oct-15 04:20N 34°42' E 135°17'0 0.0
2017-Oct-15 03:56N 34°42' E 135°17'0 0.0
2017-Oct-15 03:26N 34°42' E 135°17'0 0.0
2017-Oct-15 02:56N 34°42' E 135°17'0 0.0
2017-Oct-15 02:26N 34°42' E 135°17'0 0.0
2017-Oct-15 01:56N 34°42' E 135°17'0 0.0
2017-Oct-15 01:20N 34°42' E 135°17'0 0.0
2017-Oct-15 00:56N 34°42' E 135°17'0 0.0
2017-Oct-15 00:26N 34°42' E 135°17'0 0.0
2017-Oct-14 23:56N 34°42' E 135°17'0 0.0
2017-Oct-14 23:26N 34°42' E 135°17'0 0.0
2017-Oct-14 22:55N 34°42' E 135°17'2 4.4
2017-Oct-14 22:30N 34°40' E 135°18'815.2
2017-Oct-14 22:00N 34°35' E 135°12'918.0
2017-Oct-14 21:30N 34°37' E 135°01'1018.2
2017-Oct-14 20:59N 34°33' E 134°50'4 0.1
2017-Oct-13 12:12N 34°36' E 134°53'418.6
2017-Oct-13 12:01N 34°37' E 134°57'1019.1
2017-Oct-13 11:30N 34°36' E 135°09'917.6
2017-Oct-13 11:00N 34°41' E 135°18'2 3.2
2017-Oct-13 10:30N 34°42' E 135°17'0 0.0
2017-Oct-13 09:55N 34°42' E 135°17'0 0.0
2017-Oct-13 09:25N 34°42' E 135°17'0 0.0
2017-Oct-13 08:43N 34°42' E 135°17'0 0.0
2017-Oct-13 08:13N 34°42' E 135°17'0 0.0
2017-Oct-13 07:55N 34°42' E 135°17'0 0.0
2017-Oct-13 07:13N 34°42' E 135°17'0 0.0
2017-Oct-13 06:55N 34°42' E 135°17'0 0.0
2017-Oct-13 06:25N 34°42' E 135°17'0 0.0
2017-Oct-13 05:55N 34°42' E 135°17'0 0.0
2017-Oct-13 05:25N 34°42' E 135°17'0 0.0
2017-Oct-13 04:55N 34°42' E 135°17'0 0.0
2017-Oct-13 04:25N 34°42' E 135°17'0 0.0
2017-Oct-13 03:49N 34°42' E 135°17'0 0.0
2017-Oct-13 03:25N 34°42' E 135°17'0 0.0
2017-Oct-13 02:55N 34°42' E 135°17'0 0.0
2017-Oct-13 02:25N 34°42' E 135°17'0 0.0
2017-Oct-13 01:43N 34°42' E 135°17'0 0.0
2017-Oct-13 01:25N 34°42' E 135°17'0 0.0
2017-Oct-13 00:55N 34°42' E 135°17'0 0.0
2017-Oct-13 00:07N 34°42' E 135°17'0 0.0
2017-Oct-12 23:55N 34°42' E 135°17'0 0.0
2017-Oct-12 23:25N 34°42' E 135°17'0 0.0
2017-Oct-12 22:49N 34°42' E 135°17'0 0.0
2017-Oct-12 22:25N 34°42' E 135°17'0 0.0
2017-Oct-12 21:43N 34°42' E 135°17'0 0.2
2017-Oct-12 21:31N 34°42' E 135°17'510.2
2017-Oct-12 21:01N 34°37' E 135°17'917.5
2017-Oct-12 20:30N 34°34' E 135°07'1019.7
2017-Oct-12 19:58N 34°35' E 134°54'  

Dump ship's entire track history